Time;durP1;ratioP1;P1;durP2;ratioP2;P2;SDS_P1;SDS_P2;PMS_P1;PMS_P2;Temp;Humidity;BMP_temperature;BMP_pressure;BME280_temperature;BME280_humidity;BME280_pressure;Samples;Min_cycle;Max_cycle;Signal;HPM_P1;HPM_P2
2022/03/13 00:01:01;;;;;;;5.45;5.25;;;;;;;7.33;67.65;101165.00;6081352;23;20418;-63
2022/03/13 00:03:29;;;;;;;4.82;4.63;;;;;;;7.13;67.10;101136.91;6087840;23;20041;-63
2022/03/13 00:05:55;;;;;;;4.65;4.40;;;;;;;7.17;66.79;101131.53;6084415;23;20036;-63
2022/03/13 00:08:25;;;;;;;3.70;3.50;;;;;;;7.38;66.84;101160.50;6089799;23;20033;-63
2022/03/13 00:11:08;;;;;;;4.20;3.90;;;;;;;7.38;66.06;101165.72;6089995;23;20077;-64
2022/03/13 00:13:40;;;;;;;5.40;4.97;;;;;;;7.40;66.46;101171.75;6055941;23;20579;-64
2022/03/13 00:16:12;;;;;;;3.65;3.50;;;;;;;7.19;65.63;101134.09;6108031;23;20109;-64
2022/03/13 00:18:46;;;;;;;5.78;5.47;;;;;;;7.48;65.37;101154.09;6088879;23;20025;-64
2022/03/13 00:21:15;;;;;;;5.25;4.05;;;;;;;7.48;66.29;101176.75;6084600;23;20105;-63
2022/03/13 00:23:42;;;;;;;6.10;5.80;;;;;;;7.44;65.90;101160.31;6090669;23;20016;-64
2022/03/13 00:26:09;;;;;;;4.28;3.97;;;;;;;7.46;66.95;101155.06;6091417;23;20097;-63
2022/03/13 00:28:37;;;;;;;5.45;5.25;;;;;;;7.39;67.48;101157.81;6056137;23;20089;-63
2022/03/13 00:31:06;;;;;;;3.67;3.58;;;;;;;7.40;66.46;101158.69;6091907;23;20050;-63
2022/03/13 00:33:33;;;;;;;4.90;4.70;;;;;;;7.31;65.42;101141.53;6082375;23;20406;-63
2022/03/13 00:36:00;;;;;;;3.70;3.60;;;;;;;7.06;65.71;101099.72;6085567;23;20101;-63
2022/03/13 00:38:26;;;;;;;6.25;4.07;;;;;;;7.32;64.77;101155.47;6088347;23;20028;-62
2022/03/13 00:40:55;;;;;;;4.32;4.13;;;;;;;7.27;65.37;101147.78;6086447;23;20101;-63
2022/03/13 00:43:23;;;;;;;3.67;3.58;;;;;;;7.26;64.82;101142.63;6090118;23;20497;-63
2022/03/13 00:45:50;;;;;;;3.90;3.70;;;;;;;7.30;63.63;101139.00;6085351;23;20018;-64
2022/03/13 00:48:17;;;;;;;3.65;3.55;;;;;;;7.20;62.91;101130.59;6077956;23;20505;-63
2022/03/13 00:50:45;;;;;;;4.20;4.00;;;;;;;7.19;62.94;101136.72;6086976;23;20112;-63
2022/03/13 00:53:13;;;;;;;3.38;3.25;;;;;;;6.99;62.75;101112.06;6087504;23;20073;-64
2022/03/13 00:55:40;;;;;;;5.88;5.60;;;;;;;7.08;62.72;101128.38;6082501;23;20048;-63
2022/03/13 00:58:11;;;;;;;5.93;5.63;;;;;;;7.01;62.79;101142.50;6077278;23;20022;-63
2022/03/13 01:00:38;;;;;;;5.50;5.25;;;;;;;6.88;63.39;101127.22;6078279;23;20564;-63
2022/03/13 01:03:04;;;;;;;3.60;3.50;;;;;;;6.66;62.08;101087.88;6090588;23;20014;-64
2022/03/13 01:05:31;;;;;;;5.50;5.20;;;;;;;6.90;62.04;101125.41;6077990;23;20610;-63
2022/03/13 01:07:59;;;;;;;4.32;4.13;;;;;;;6.87;61.83;101117.69;6088700;23;20605;-63
2022/03/13 01:10:26;;;;;;;4.50;4.10;;;;;;;6.90;61.27;101125.41;6083611;23;20029;-63
2022/03/13 01:12:53;;;;;;;4.05;3.85;;;;;;;6.82;61.64;101101.31;6082490;23;20025;-64
2022/03/13 01:15:20;;;;;;;3.88;3.72;;;;;;;6.91;60.37;101102.78;6089131;23;20038;-64
2022/03/13 01:17:47;;;;;;;4.10;3.90;;;;;;;6.90;61.35;101103.69;6088279;23;20052;-64
2022/03/13 01:20:18;;;;;;;3.70;3.50;;;;;;;6.89;59.59;101101.97;6087553;23;20045;-63
2022/03/13 01:22:45;;;;;;;3.33;3.22;;;;;;;6.86;60.17;101108.16;6085617;23;20006;-64
2022/03/13 01:25:13;;;;;;;3.67;3.58;;;;;;;6.72;60.02;101082.47;6087158;23;20030;-63
2022/03/13 01:27:40;;;;;;;6.00;5.70;;;;;;;6.79;59.88;101102.28;6084040;23;20040;-63
2022/03/13 01:30:07;;;;;;;3.95;3.78;;;;;;;6.55;59.89;101067.31;6089102;23;20037;-64
2022/03/13 01:32:34;;;;;;;5.15;4.95;;;;;;;6.76;59.66;101099.75;6081348;23;20037;-64
2022/03/13 01:35:00;;;;;;;3.42;3.33;;;;;;;6.68;58.86;101072.19;6089704;23;20516;-64
2022/03/13 01:37:28;;;;;;;4.60;4.38;;;;;;;6.75;58.77;101091.97;6079239;23;20095;-63
2022/03/13 01:39:56;;;;;;;3.30;3.20;;;;;;;6.69;58.84;101097.34;6083624;23;20022;-63
2022/03/13 01:42:24;;;;;;;3.40;3.30;;;;;;;6.65;58.90;101087.91;6086486;23;20041;-64
2022/03/13 01:44:51;;;;;;;4.35;4.10;;;;;;;6.30;58.22;101037.69;6081272;23;20018;-63
2022/03/13 01:47:18;;;;;;;3.45;3.35;;;;;;;6.61;57.03;101070.66;6089739;23;20615;-64
2022/03/13 01:49:46;;;;;;;5.07;4.88;;;;;;;6.63;57.34;101087.97;6083061;23;20021;-64
2022/03/13 01:52:16;;;;;;;4.07;3.88;;;;;;;6.64;57.14;101078.41;6085564;23;20041;-64
2022/03/13 01:54:47;;;;;;;5.25;5.05;;;;;;;6.65;56.91;101077.50;6088228;23;20013;-63
2022/03/13 01:57:17;;;;;;;5.03;4.10;;;;;;;5.73;56.37;100930.69;6081789;23;20268;-63
2022/03/13 01:59:43;;;;;;;5.00;4.78;;;;;;;6.26;56.64;101029.09;6074998;23;20804;-63
2022/03/13 02:02:10;;;;;;;3.83;3.65;;;;;;;6.52;56.68;101070.03;6085576;23;20010;-63
2022/03/13 02:04:36;;;;;;;5.50;5.28;;;;;;;6.27;56.19;101033.38;6082439;23;20036;-63
2022/03/13 02:07:03;;;;;;;4.25;4.05;;;;;;;6.42;55.63;101072.97;6085894;23;20052;-63
2022/03/13 02:09:29;;;;;;;4.32;4.15;;;;;;;6.00;56.46;101006.38;6086508;23;20599;-64
2022/03/13 02:11:56;;;;;;;3.40;3.30;;;;;;;6.22;56.01;101053.53;6083464;23;20020;-64
2022/03/13 02:14:23;;;;;;;3.35;3.25;;;;;;;6.09;56.21;101029.53;6085626;23;20069;-63
2022/03/13 02:16:51;;;;;;;4.05;3.85;;;;;;;6.21;56.36;101056.16;6108158;23;20018;-64
2022/03/13 02:19:18;;;;;;;3.78;3.67;;;;;;;5.84;55.86;101000.72;6087620;23;20026;-65
2022/03/13 02:21:53;;;;;;;5.07;4.78;;;;;;;5.96;56.40;101031.66;6080957;23;20028;-66
2022/03/13 02:24:23;;;;;;;3.30;3.20;;;;;;;5.96;56.23;101051.66;6090726;23;20037;-67
2022/03/13 02:27:04;;;;;;;3.50;3.40;;;;;;;5.87;57.03;101052.69;6081225;23;20062;-63
2022/03/13 02:29:32;;;;;;;5.57;5.28;;;;;;;5.70;56.29;101023.66;6079591;23;20013;-63
2022/03/13 02:32:00;;;;;;;3.40;3.20;;;;;;;5.79;56.06;101050.31;6063286;23;20014;-63
2022/03/13 02:34:27;;;;;;;3.60;3.50;;;;;;;5.72;55.62;101037.50;6081945;23;20082;-63
2022/03/13 02:36:56;;;;;;;4.80;3.85;;;;;;;5.66;55.62;101028.09;6057997;23;20592;-66
2022/03/13 02:39:24;;;;;;;3.83;3.63;;;;;;;5.75;54.90;101038.28;6087310;23;20026;-63
2022/03/13 02:41:50;;;;;;;3.40;3.30;;;;;;;5.76;54.83;101049.53;6070068;23;20089;-64
2022/03/13 02:44:19;;;;;;;4.03;3.83;;;;;;;5.72;54.95;101037.50;6079889;23;20057;-64
2022/03/13 02:46:46;;;;;;;3.40;3.30;;;;;;;5.69;53.91;101035.84;6053138;23;20101;-63
2022/03/13 02:49:18;;;;;;;4.90;3.60;;;;;;;5.68;54.20;101034.13;6083429;23;20090;-63
2022/03/13 02:51:45;;;;;;;3.33;3.22;;;;;;;5.64;53.57;101031.66;6083453;23;20180;-63
2022/03/13 02:54:14;;;;;;;3.92;3.72;;;;;;;5.60;53.23;101025.66;6083153;23;20101;-63
2022/03/13 02:56:41;;;;;;;5.07;4.88;;;;;;;5.51;54.02;101013.75;6080572;23;20077;-64
2022/03/13 02:59:09;;;;;;;4.07;3.88;;;;;;;5.38;53.82;100992.38;6085752;23;20494;-66
2022/03/13 03:01:37;;;;;;;5.10;4.90;;;;;;;5.46;53.84;101015.59;6080627;23;20056;-63
2022/03/13 03:04:05;;;;;;;3.13;3.03;;;;;;;5.37;53.89;101005.41;6085222;23;20047;-63
2022/03/13 03:06:34;;;;;;;4.32;4.13;;;;;;;5.29;53.97;100995.22;6083228;23;20028;-63
2022/03/13 03:09:02;;;;;;;3.58;3.38;;;;;;;5.39;54.12;101011.44;6090529;23;20085;-63
2022/03/13 03:11:32;;;;;;;3.50;3.40;;;;;;;5.26;54.19;100994.44;6061121;23;20017;-65
2022/03/13 03:14:03;;;;;;;4.15;3.90;;;;;;;5.32;53.49;101015.09;6082632;23;20098;-63
2022/03/13 03:16:30;;;;;;;4.05;3.88;;;;;;;5.11;54.14;100998.28;6085034;23;20030;-65
2022/03/13 03:18:58;;;;;;;3.92;3.72;;;;;;;5.13;54.38;101015.56;6081186;23;20025;-63
2022/03/13 03:21:25;;;;;;;4.10;3.70;;;;;;;5.16;54.84;101023.28;6080906;23;20053;-66
2022/03/13 03:23:52;;;;;;;3.40;3.30;;;;;;;5.13;54.43;101025.97;6083528;23;20006;-66
2022/03/13 03:26:18;;;;;;;3.97;3.78;;;;;;;5.13;52.73;101019.91;6080010;23;20034;-63
2022/03/13 03:28:46;;;;;;;4.38;4.18;;;;;;;4.85;52.40;100984.19;6077417;23;20006;-63
2022/03/13 03:31:12;;;;;;;3.60;3.40;;;;;;;5.08;52.23;101022.63;6080774;23;20026;-64
2022/03/13 03:33:38;;;;;;;4.93;4.72;;;;;;;5.12;51.96;101041.63;6076138;23;20080;-64
2022/03/13 03:36:05;;;;;;;3.50;3.40;;;;;;;5.09;52.52;101034.75;6086726;23;20089;-65
2022/03/13 03:38:31;;;;;;;5.05;4.85;;;;;;;5.07;51.66;101031.34;6087654;23;20026;-63
2022/03/13 03:40:58;;;;;;;3.20;3.10;;;;;;;5.08;51.23;101035.63;6084874;23;20053;-63
2022/03/13 03:43:24;;;;;;;3.38;3.28;;;;;;;4.71;50.83;100945.50;6081649;23;20030;-63
2022/03/13 03:45:51;;;;;;;3.20;3.10;;;;;;;5.27;49.30;101022.16;6080577;23;20394;-64
2022/03/13 03:48:20;;;;;;;4.55;4.22;;;;;;;5.02;50.56;100998.50;6086865;23;20018;-63
2022/03/13 03:50:46;;;;;;;3.70;3.50;;;;;;;5.22;50.37;101024.03;6075117;23;20220;-63
2022/03/13 03:53:12;;;;;;;3.83;3.63;;;;;;;5.31;49.32;101021.19;6090497;23;20029;-63
2022/03/13 03:55:39;;;;;;;5.97;5.68;;;;;;;5.24;48.75;101007.50;6079144;23;20273;-63
2022/03/13 03:58:12;;;;;;;3.10;3.00;;;;;;;5.38;48.71;101027.97;6074061;23;20056;-63
2022/03/13 04:00:39;;;;;;;5.65;5.35;;;;;;;5.42;48.20;101013.97;6087932;23;20081;-64
2022/03/13 04:03:06;;;;;;;3.17;3.08;;;;;;;4.52;48.77;100877.50;6084011;23;20024;-64
2022/03/13 04:05:32;;;;;;;5.45;5.15;;;;;;;4.97;48.51;100976.06;6071521;23;20033;-62
2022/03/13 04:07:59;;;;;;;3.55;3.35;;;;;;;5.26;49.35;101016.13;6092680;23;20634;-64
2022/03/13 04:10:25;;;;;;;3.20;3.10;;;;;;;5.32;49.04;101018.56;6087454;23;20086;-64
2022/03/13 04:12:52;;;;;;;3.17;3.08;;;;;;;5.21;49.41;101010.16;6092263;23;20014;-64
2022/03/13 04:15:18;;;;;;;3.20;3.10;;;;;;;5.36;49.03;101027.16;6086214;23;20509;-64
2022/03/13 04:17:45;;;;;;;4.32;4.05;;;;;;;5.38;47.80;101030.56;6082659;23;20585;-65
2022/03/13 04:20:11;;;;;;;3.10;3.00;;;;;;;5.43;48.25;101026.06;6091814;23;20091;-64
2022/03/13 04:22:37;;;;;;;5.90;5.57;;;;;;;5.36;47.35;100988.09;6081731;23;20210;-63
2022/03/13 04:25:05;;;;;;;3.33;3.22;;;;;;;5.35;47.02;100987.25;6090970;23;20038;-66
2022/03/13 04:27:32;;;;;;;4.63;4.43;;;;;;;5.65;46.72;101009.91;6082756;23;20639;-65
2022/03/13 04:29:59;;;;;;;3.15;3.05;;;;;;;5.73;46.17;101020.97;6086069;23;20022;-65
2022/03/13 04:32:25;;;;;;;3.63;3.42;;;;;;;5.77;46.91;101014.78;6086297;23;20107;-63
2022/03/13 04:34:51;;;;;;;3.20;3.10;;;;;;;5.85;46.10;101022.38;6087024;23;20053;-64
2022/03/13 04:37:19;;;;;;;3.83;3.65;;;;;;;5.88;45.44;101010.16;6084133;23;20488;-63
2022/03/13 04:39:50;;;;;;;4.60;4.40;;;;;;;5.94;44.11;101007.38;6055792;23;20111;-64
2022/03/13 04:42:17;;;;;;;3.20;3.10;;;;;;;5.81;44.59;100979.94;6082809;23;20022;-63
2022/03/13 04:44:44;;;;;;;4.90;4.70;;;;;;;6.03;43.93;101008.03;6087361;23;20030;-64
2022/03/13 04:47:10;;;;;;;3.10;3.00;;;;;;;5.87;44.16;100976.31;6086695;23;20057;-63
2022/03/13 04:49:37;;;;;;;5.38;4.97;;;;;;;6.03;44.60;101015.84;6083450;23;20028;-64
2022/03/13 04:52:05;;;;;;;3.40;3.30;;;;;;;5.77;44.51;100973.13;6088608;23;20552;-63
2022/03/13 04:54:31;;;;;;;4.57;4.38;;;;;;;5.89;43.86;100995.38;6054073;23;20030;-65
2022/03/13 04:56:58;;;;;;;3.60;3.50;;;;;;;6.07;43.89;101023.53;6086570;23;20017;-63
2022/03/13 04:59:25;;;;;;;3.70;3.50;;;;;;;5.90;43.93;100995.31;6085760;23;20026;-63
2022/03/13 05:01:52;;;;;;;3.25;3.15;;;;;;;6.00;44.56;101016.78;6077438;23;20082;-65
2022/03/13 05:04:18;;;;;;;4.45;4.18;;;;;;;5.92;43.79;101009.16;6080383;23;20074;-63
2022/03/13 05:06:45;;;;;;;4.20;4.00;;;;;;;4.91;43.06;100858.31;6082827;23;20630;-63
2022/03/13 05:09:11;;;;;;;3.03;2.92;;;;;;;5.88;43.56;101022.31;6091250;23;20078;-64
2022/03/13 05:11:41;;;;;;;4.78;4.57;;;;;;;5.82;43.33;101018.13;6076811;23;20085;-65
2022/03/13 05:14:07;;;;;;;3.70;3.53;;;;;;;5.76;43.98;101026.97;6063233;23;20148;-65
2022/03/13 05:16:34;;;;;;;4.60;4.40;;;;;;;5.59;44.21;100996.19;6084211;23;20010;-65
2022/03/13 05:19:02;;;;;;;3.53;3.40;;;;;;;5.77;44.04;101014.78;6084264;23;20075;-64
2022/03/13 05:21:29;;;;;;;4.75;4.45;;;;;;;5.77;43.73;100992.22;6085794;23;20022;-65
2022/03/13 05:23:56;;;;;;;3.38;3.20;;;;;;;5.86;42.91;101008.50;6086130;23;20009;-65
2022/03/13 05:26:23;;;;;;;4.03;3.72;;;;;;;5.63;43.94;100976.09;6088545;23;20095;-66
2022/03/13 05:28:52;;;;;;;3.30;3.20;;;;;;;5.86;42.85;101011.94;6093868;23;20021;-65
2022/03/13 05:31:18;;;;;;;3.92;3.72;;;;;;;5.93;42.30;101000.47;6082626;23;20030;-65
2022/03/13 05:33:45;;;;;;;3.50;3.40;;;;;;;5.97;42.74;101014.25;6081814;23;20290;-66
2022/03/13 05:36:11;;;;;;;3.20;3.10;;;;;;;5.72;42.58;100964.59;6085550;23;20038;-66
2022/03/13 05:38:38;;;;;;;5.47;5.18;;;;;;;5.07;42.74;100846.66;6063271;23;20097;-66
2022/03/13 05:41:06;;;;;;;3.25;3.15;;;;;;;5.84;41.59;100971.22;6089444;23;20494;-65
2022/03/13 05:43:33;;;;;;;5.25;5.05;;;;;;;5.99;42.01;100994.22;6089271;23;20046;-66
2022/03/13 05:45:59;;;;;;;3.20;3.10;;;;;;;6.14;41.45;101021.63;6091857;23;20032;-65
2022/03/13 05:48:26;;;;;;;4.22;4.03;;;;;;;6.21;41.65;101027.50;6084806;23;20099;-66
2022/03/13 05:50:53;;;;;;;3.10;3.00;;;;;;;5.98;41.35;100996.00;6084677;23;20025;-66
2022/03/13 05:53:19;;;;;;;3.70;3.40;;;;;;;6.25;40.78;101036.94;6110745;23;20025;-65
2022/03/13 05:55:45;;;;;;;3.75;3.60;;;;;;;6.32;39.77;101034.13;6080845;23;20033;-66
2022/03/13 05:58:13;;;;;;;3.00;2.90;;;;;;;6.29;40.14;101039.41;6089778;23;20252;-66
2022/03/13 06:00:40;;;;;;;5.45;5.15;;;;;;;6.05;40.93;100999.28;6078591;23;20020;-65
2022/03/13 06:03:08;;;;;;;4.63;4.38;;;;;;;6.31;40.83;101042.81;6081620;23;20028;-67
2022/03/13 06:05:35;;;;;;;3.45;3.35;;;;;;;6.32;40.96;101043.69;6084836;23;20025;-63
2022/03/13 06:08:03;;;;;;;3.20;3.10;;;;;;;6.32;39.72;101047.16;6082996;23;20087;-63
2022/03/13 06:10:30;;;;;;;5.00;4.80;;;;;;;6.19;40.70;101028.41;6074163;23;20025;-62
2022/03/13 06:12:56;;;;;;;3.45;3.35;;;;;;;6.34;40.02;101055.78;6084632;23;20704;-63
2022/03/13 06:15:23;;;;;;;3.40;3.30;;;;;;;6.33;39.98;101056.66;6068048;23;20022;-62
2022/03/13 06:17:51;;;;;;;4.05;3.63;;;;;;;6.26;40.70;101033.44;6086396;23;20030;-63
2022/03/13 06:20:18;;;;;;;3.10;3.00;;;;;;;6.37;40.39;101040.06;6076635;23;20050;-63
2022/03/13 06:22:46;;;;;;;4.03;3.83;;;;;;;6.36;39.77;101046.16;6076691;23;20090;-63
2022/03/13 06:25:14;;;;;;;3.45;3.30;;;;;;;6.37;39.58;101039.19;6063323;23;21012;-64
2022/03/13 06:27:41;;;;;;;4.47;4.28;;;;;;;6.35;39.63;101049.69;6078566;23;20021;-63
2022/03/13 06:30:13;;;;;;;3.78;3.58;;;;;;;6.27;40.68;101040.34;6084429;23;20053;-63
2022/03/13 06:32:41;;;;;;;5.13;4.93;;;;;;;5.91;40.60;100981.41;6077583;23;20365;-64
2022/03/13 06:35:09;;;;;;;3.25;3.15;;;;;;;5.89;41.08;100988.38;6069029;23;20081;-62
2022/03/13 06:37:39;;;;;;;5.15;4.95;;;;;;;6.29;39.95;101051.59;6076556;23;20108;-64
2022/03/13 06:40:13;;;;;;;2.90;2.80;;;;;;;6.31;39.61;101066.28;6095391;23;20052;-65
2022/03/13 06:42:40;;;;;;;5.55;5.28;;;;;;;6.32;39.92;101044.53;6075259;23;20093;-63
2022/03/13 06:45:10;;;;;;;3.75;3.55;;;;;;;6.35;40.35;101044.47;6081609;23;20249;-62
2022/03/13 06:47:38;;;;;;;5.50;5.20;;;;;;;6.23;39.44;101023.09;6077847;23;20285;-62
2022/03/13 06:50:06;;;;;;;3.58;3.40;;;;;;;6.36;39.79;101047.91;6081267;23;20060;-62
2022/03/13 06:52:33;;;;;;;4.80;4.60;;;;;;;6.04;40.30;100994.13;6064150;23;20220;-61
2022/03/13 06:55:00;;;;;;;3.30;3.20;;;;;;;6.48;39.98;101044.94;6074592;23;20335;-64
2022/03/13 06:57:27;;;;;;;4.80;4.50;;;;;;;6.52;38.94;101054.38;6078138;23;20036;-62
2022/03/13 06:59:54;;;;;;;3.47;3.38;;;;;;;6.45;39.61;101034.59;6072841;23;20018;-62
2022/03/13 07:02:20;;;;;;;4.07;3.88;;;;;;;6.55;39.37;101030.81;6080548;23;20051;-62
2022/03/13 07:04:46;;;;;;;3.30;3.20;;;;;;;6.68;39.37;101046.13;6076449;23;20034;-62
2022/03/13 07:07:13;;;;;;;3.38;3.28;;;;;;;6.43;38.77;101002.50;6079824;23;20480;-64
2022/03/13 07:09:39;;;;;;;4.57;4.38;;;;;;;6.79;37.88;101044.00;6079397;23;20284;-65
2022/03/13 07:12:10;;;;;;;3.83;3.63;;;;;;;6.84;38.02;101046.50;6051389;23;20026;-65
2022/03/13 07:14:42;;;;;;;5.20;5.00;;;;;;;6.63;37.99;101019.31;6074209;23;20046;-65
2022/03/13 07:17:08;;;;;;;3.97;3.78;;;;;;;6.90;38.05;101051.53;6044598;23;20475;-66
2022/03/13 07:19:35;;;;;;;4.97;4.78;;;;;;;6.93;38.22;101057.47;6070099;23;20026;-64
2022/03/13 07:22:01;;;;;;;3.95;3.75;;;;;;;6.60;38.40;101007.22;6089334;23;20150;-63
2022/03/13 07:24:28;;;;;;;4.20;4.03;;;;;;;6.81;38.25;101033.53;6075219;23;20010;-66
2022/03/13 07:26:54;;;;;;;3.45;3.35;;;;;;;6.94;38.80;101053.13;6073177;23;20036;-64
2022/03/13 07:29:23;;;;;;;3.45;3.35;;;;;;;7.04;38.65;101048.47;6080844;23;20021;-65
2022/03/13 07:31:49;;;;;;;3.40;3.30;;;;;;;7.07;36.93;101049.22;6077715;23;20130;-67
2022/03/13 07:34:16;;;;;;;3.50;3.40;;;;;;;6.90;37.74;101021.06;6076016;23;20022;-65
2022/03/13 07:36:42;;;;;;;3.40;3.30;;;;;;;7.05;38.38;101042.34;6079761;23;20018;-66
2022/03/13 07:39:09;;;;;;;3.55;3.45;;;;;;;6.98;38.14;101018.22;6081250;23;20041;-65
2022/03/13 07:41:35;;;;;;;3.75;3.55;;;;;;;6.68;38.07;100968.72;6086105;23;20036;-66
2022/03/13 07:44:04;;;;;;;4.72;4.53;;;;;;;7.15;38.31;101028.94;6056256;23;20125;-66
2022/03/13 07:46:30;;;;;;;4.10;3.90;;;;;;;7.31;37.44;100997.13;6081218;23;20028;-65
2022/03/13 07:48:57;;;;;;;4.88;4.68;;;;;;;7.79;35.46;101054.63;6056102;23;20018;-65
2022/03/13 07:51:23;;;;;;;4.38;4.18;;;;;;;6.53;36.04;100854.47;6076973;23;20660;-66
2022/03/13 07:53:50;;;;;;;3.53;3.42;;;;;;;7.82;37.05;101052.81;6081602;23;20123;-67
2022/03/13 07:56:16;;;;;;;3.85;3.70;;;;;;;7.71;37.62;101034.91;6079886;23;20358;-65
2022/03/13 07:58:43;;;;;;;3.50;3.40;;;;;;;7.85;35.88;101044.91;6067568;23;20028;-65
2022/03/13 08:01:09;;;;;;;4.88;4.68;;;;;;;7.82;36.34;101056.31;6084190;23;20100;-66
2022/03/13 08:03:36;;;;;;;3.60;3.50;;;;;;;7.59;36.94;101008.31;6055071;23;20765;-66
2022/03/13 08:06:03;;;;;;;4.30;4.10;;;;;;;7.84;36.73;101057.13;6083907;23;20034;-67
2022/03/13 08:08:30;;;;;;;3.60;3.50;;;;;;;7.74;36.33;101053.13;6058927;23;20140;-64
2022/03/13 08:10:57;;;;;;;3.50;3.40;;;;;;;7.43;35.27;101019.34;6086047;23;20104;-66
2022/03/13 08:13:24;;;;;;;4.65;4.45;;;;;;;7.70;37.30;101048.91;6064500;23;20634;-66
2022/03/13 08:15:50;;;;;;;6.07;3.70;;;;;;;7.64;36.47;101046.47;6087020;23;20038;-66
2022/03/13 08:18:17;;;;;;;4.22;4.00;;;;;;;7.67;35.83;101049.00;6056458;23;20279;-67
2022/03/13 08:20:44;;;;;;;5.15;4.95;;;;;;;7.74;36.05;101042.66;6075751;23;20081;-66
2022/03/13 08:23:10;;;;;;;3.47;3.38;;;;;;;7.79;35.82;101045.94;6083544;23;20022;-67
2022/03/13 08:25:36;;;;;;;4.25;4.05;;;;;;;8.03;35.83;101043.38;6074029;23;20262;-65
2022/03/13 08:28:04;;;;;;;4.32;4.13;;;;;;;7.96;36.31;101066.28;6080313;23;20101;-65
2022/03/13 08:30:30;;;;;;;4.03;3.83;;;;;;;8.00;35.02;101049.59;6075075;23;20513;-64
2022/03/13 08:32:56;;;;;;;3.80;3.65;;;;;;;8.01;35.65;101026.91;6078981;23;20416;-65
2022/03/13 08:35:24;;;;;;;3.95;3.75;;;;;;;8.26;35.11;101060.84;6069705;23;20024;-66
2022/03/13 08:37:52;;;;;;;5.00;4.80;;;;;;;8.13;35.19;101011.63;6064568;23;20200;-65
2022/03/13 08:40:19;;;;;;;3.35;3.25;;;;;;;8.52;35.05;101044.19;6077034;23;20024;-65
2022/03/13 08:42:46;;;;;;;5.10;4.90;;;;;;;8.32;34.96;100988.25;6081559;23;20021;-65
2022/03/13 08:45:12;;;;;;;3.60;3.50;;;;;;;8.78;34.94;101051.06;6064682;23;20149;-65
2022/03/13 08:47:40;;;;;;;3.90;3.70;;;;;;;9.01;34.88;101047.53;6065988;23;20276;-65
2022/03/13 08:50:07;;;;;;;3.90;3.70;;;;;;;7.99;33.63;100850.06;6076562;23;20300;-65
2022/03/13 08:52:35;;;;;;;4.35;4.15;;;;;;;8.95;33.26;100974.47;6074483;23;20025;-66
2022/03/13 08:55:08;;;;;;;5.07;4.88;;;;;;;9.34;33.99;101029.59;6076313;23;20256;-66
2022/03/13 08:57:36;;;;;;;4.10;3.90;;;;;;;8.31;33.41;100895.03;6086277;23;20331;-66
2022/03/13 09:00:03;;;;;;;5.35;5.13;;;;;;;9.38;33.61;101043.41;6076161;23;20165;-66
2022/03/13 09:02:30;;;;;;;4.03;3.83;;;;;;;9.39;33.77;101042.50;6054505;23;20645;-65
2022/03/13 09:04:57;;;;;;;5.50;5.28;;;;;;;9.21;34.01;101027.56;6084154;23;20423;-67
2022/03/13 09:07:24;;;;;;;4.10;3.90;;;;;;;9.29;33.93;101033.31;6071970;23;20445;-66
2022/03/13 09:09:54;;;;;;;5.57;5.28;;;;;;;9.19;34.58;101031.06;6078210;23;20516;-66
2022/03/13 09:12:23;;;;;;;4.10;3.90;;;;;;;9.11;33.73;100998.28;6080966;23;20009;-66
2022/03/13 09:14:49;;;;;;;5.20;5.00;;;;;;;9.26;33.25;101012.47;6079754;23;20143;-66
2022/03/13 09:17:17;;;;;;;3.70;3.60;;;;;;;9.44;33.45;101032.69;6084071;23;20097;-67
2022/03/13 09:19:44;;;;;;;3.80;3.70;;;;;;;9.25;33.88;101010.78;6076840;23;20024;-67
2022/03/13 09:22:14;;;;;;;3.88;3.70;;;;;;;9.48;33.38;101025.53;6081029;23;20419;-65
2022/03/13 09:24:41;;;;;;;4.85;4.65;;;;;;;9.49;33.64;101024.63;6082826;23;20112;-66
2022/03/13 09:27:07;;;;;;;4.10;3.80;;;;;;;9.51;34.33;101026.25;6080471;23;20244;-66
2022/03/13 09:29:34;;;;;;;4.10;3.90;;;;;;;9.44;34.38;101035.31;6067144;23;20051;-63
2022/03/13 09:32:01;;;;;;;4.85;4.65;;;;;;;9.34;35.11;101031.34;6082967;23;20506;-66
2022/03/13 09:34:28;;;;;;;4.00;3.80;;;;;;;9.19;33.70;101012.75;6061776;23;20018;-64
2022/03/13 09:36:54;;;;;;;5.35;5.05;;;;;;;9.38;34.24;101035.53;6084178;23;20265;-64
2022/03/13 09:39:21;;;;;;;4.38;4.07;;;;;;;9.37;35.19;101033.84;6089611;23;20017;-64
2022/03/13 09:41:47;;;;;;;4.97;4.55;;;;;;;9.31;34.31;101005.28;6089791;23;20020;-64
2022/03/13 09:44:13;;;;;;;3.90;3.70;;;;;;;9.45;33.88;101029.13;6065428;23;20018;-63
2022/03/13 09:46:40;;;;;;;4.20;4.00;;;;;;;9.59;34.92;101026.78;6088887;23;20905;-64
2022/03/13 09:49:06;;;;;;;5.10;4.68;;;;;;;9.48;34.64;100988.84;6085434;23;20310;-64
2022/03/13 09:51:33;;;;;;;9.20;8.77;;;;;;;9.18;34.80;100926.38;6052936;23;20782;-63
2022/03/13 09:54:02;;;;;;;5.78;5.47;;;;;;;10.02;33.86;101025.81;6034829;23;20380;-65
2022/03/13 09:56:29;;;;;;;4.18;3.97;;;;;;;10.09;33.28;101028.09;6088362;23;20051;-66
2022/03/13 09:58:55;;;;;;;5.60;5.30;;;;;;;10.26;34.88;101016.84;6083021;23;20031;-64
2022/03/13 10:01:22;;;;;;;4.20;4.00;;;;;;;10.66;33.50;101017.63;6092263;23;20040;-64
2022/03/13 10:03:49;;;;;;;5.50;5.20;;;;;;;10.96;33.23;100989.09;6080298;23;20034;-64
2022/03/13 10:06:15;;;;;;;3.80;3.70;;;;;;;11.50;32.70;101003.91;6084775;23;20466;-63
2022/03/13 10:08:42;;;;;;;4.45;4.18;;;;;;;11.54;32.49;101008.09;6056092;23;20465;-64
2022/03/13 10:11:08;;;;;;;4.10;3.90;;;;;;;11.83;32.34;101011.00;6079858;23;20591;-64
2022/03/13 10:13:45;;;;;;;4.28;4.03;;;;;;;11.98;31.60;100994.44;6086515;23;20016;-64
2022/03/13 10:16:19;;;;;;;4.65;4.45;;;;;;;12.06;30.59;101008.00;6085390;23;20032;-64
2022/03/13 10:18:46;;;;;;;4.53;4.32;;;;;;;11.97;31.24;101017.25;6053149;23;20026;-66
2022/03/13 10:21:18;;;;;;;4.00;3.80;;;;;;;12.00;31.81;100999.59;6088175;23;20116;-63
2022/03/13 10:23:48;;;;;;;4.50;4.30;;;;;;;12.16;32.08;100989.97;6083534;23;20014;-63
2022/03/13 10:26:17;;;;;;;4.78;4.57;;;;;;;12.27;31.88;100970.97;6084252;23;20098;-64
2022/03/13 10:28:44;;;;;;;3.90;3.75;;;;;;;12.46;32.55;100990.06;6083782;23;20412;-63
2022/03/13 10:31:16;;;;;;;4.60;4.40;;;;;;;12.64;31.59;100992.59;6090288;23;20080;-64
2022/03/13 10:33:55;;;;;;;6.65;6.13;;;;;;;12.69;31.71;100985.28;6076557;23;20044;-63
2022/03/13 10:36:39;;;;;;;4.13;3.92;;;;;;;12.55;31.95;100984.28;6067000;23;20471;-63
2022/03/13 10:39:20;;;;;;;5.13;4.75;;;;;;;12.71;32.45;100984.28;6086448;23;20376;-64
2022/03/13 10:41:56;;;;;;;4.85;4.63;;;;;;;12.73;31.72;100976.31;6087657;23;20034;-63
2022/03/13 10:44:25;;;;;;;5.43;5.13;;;;;;;12.77;31.99;100968.13;6065186;23;20026;-64
2022/03/13 10:47:01;;;;;;;5.88;5.57;;;;;;;12.83;32.33;100981.88;6086176;23;20332;-63
2022/03/13 10:49:37;;;;;;;4.93;4.72;;;;;;;12.91;32.06;100983.16;6085939;23;20081;-63
2022/03/13 10:52:22;;;;;;;4.85;4.65;;;;;;;12.65;32.46;100928.47;6085960;23;20435;-64
2022/03/13 10:54:49;;;;;;;6.53;6.13;;;;;;;12.97;32.48;100969.63;6083291;23;20499;-64
2022/03/13 10:57:16;;;;;;;4.57;4.38;;;;;;;12.96;31.71;100974.97;6088342;23;20157;-64
2022/03/13 11:00:09;;;;;;;5.47;5.15;;;;;;;13.18;32.49;100967.50;6080379;23;20467;-64
2022/03/13 11:02:36;;;;;;;4.55;4.35;;;;;;;13.29;32.35;100963.38;6080711;23;20018;-66
2022/03/13 11:05:04;;;;;;;9.85;6.75;;;;;;;13.49;32.78;100956.94;6056862;23;20237;-64
2022/03/13 11:07:31;;;;;;;7.65;4.70;;;;;;;13.64;33.33;100953.41;6087386;23;20052;-64
2022/03/13 11:09:58;;;;;;;6.38;6.07;;;;;;;13.76;32.83;100951.81;6082493;23;20387;-64
2022/03/13 11:12:26;;;;;;;5.72;5.43;;;;;;;13.84;33.21;100949.53;6085886;23;20018;-64
2022/03/13 11:14:55;;;;;;;6.78;6.38;;;;;;;13.94;32.63;100950.66;6057699;23;20064;-66
2022/03/13 11:17:28;;;;;;;5.10;4.85;;;;;;;14.10;33.56;100949.69;6091078;23;20274;-66
2022/03/13 11:19:58;;;;;;;5.78;5.47;;;;;;;14.18;32.57;100942.16;6086871;23;20085;-67
2022/03/13 11:22:27;;;;;;;4.78;4.57;;;;;;;13.85;32.96;100882.66;6089252;23;20441;-67
2022/03/13 11:24:57;;;;;;;6.28;5.97;;;;;;;14.32;32.88;100938.63;6089751;23;20056;-66
2022/03/13 11:27:25;;;;;;;4.90;4.70;;;;;;;14.50;33.25;100934.81;6086969;23;20042;-66
2022/03/13 11:29:53;;;;;;;6.43;6.13;;;;;;;14.65;33.29;100927.69;6065050;23;20426;-64
2022/03/13 11:32:42;;;;;;;6.13;5.70;;;;;;;14.89;33.41;100932.31;6091936;23;20038;-64
2022/03/13 11:35:11;;;;;;;5.00;4.70;;;;;;;14.97;33.09;100924.72;6084751;23;20026;-64